Time;durP1;ratioP1;P1;durP2;ratioP2;P2;SDS_P1;SDS_P2;PMS_P1;PMS_P2;Temp;Humidity;BMP_temperature;BMP_pressure;BME280_temperature;BME280_humidity;BME280_pressure;Samples;Min_cycle;Max_cycle;Signal;HPM_P1;HPM_P2
2022/07/14 00:01:11;;;;;;;3.78;1.40;;;23.50;75.60;;;;;;5054682;28;19912;-60
2022/07/14 00:03:36;;;;;;;;;;;23.40;75.70;;;;;;5055195;28;20032;-60
2022/07/14 00:06:02;;;;;;;4.30;1.60;;;23.40;76.00;;;;;;5055364;28;19962;-59
2022/07/14 00:08:27;;;;;;;;;;;23.40;76.00;;;;;;5054950;28;20033;-60
2022/07/14 00:10:53;;;;;;;3.20;1.30;;;23.40;76.10;;;;;;5054743;28;19954;-61
2022/07/14 00:13:19;;;;;;;;;;;23.30;76.40;;;;;;5054960;28;20071;-63
2022/07/14 00:15:44;;;;;;;2.33;1.52;;;23.40;76.30;;;;;;5053931;28;19905;-62
2022/07/14 00:18:10;;;;;;;4.93;2.05;;;23.30;76.80;;;;;;5053158;28;20025;-61
2022/07/14 00:20:36;;;;;;;2.85;1.70;;;23.20;76.60;;;;;;5054553;28;20079;-61
2022/07/14 00:23:01;;;;;;;;;;;23.30;77.10;;;;;;5054686;28;20060;-61
2022/07/14 00:25:27;;;;;;;2.28;1.35;;;23.40;76.80;;;;;;5054047;28;19963;-62
2022/07/14 00:27:54;;;;;;;2.28;1.80;;;23.30;76.80;;;;;;5054155;28;20395;-62
2022/07/14 00:30:20;;;;;;;3.30;1.60;;;23.20;76.10;;;;;;5052881;28;20033;-59
2022/07/14 00:32:46;;;;;;;3.85;1.42;;;23.20;76.40;;;;;;5054215;28;20021;-61
2022/07/14 00:35:13;;;;;;;3.28;1.73;;;23.20;76.80;;;;;;5054265;28;20116;-61
2022/07/14 00:37:38;;;;;;;4.50;1.58;;;23.20;76.70;;;;;;5053922;28;20492;-62
2022/07/14 00:40:05;;;;;;;6.15;1.30;;;23.20;76.30;;;;;;5054659;28;20025;-59
2022/07/14 00:42:33;;;;;;;5.07;1.50;;;23.00;75.50;;;;;;5054565;28;20074;-61
2022/07/14 00:45:19;;;;;;;1.98;1.13;;;23.10;75.80;;;;;;5054302;28;20104;-61
2022/07/14 00:47:46;;;;;;;3.90;1.27;;;23.00;75.20;;;;;;5054005;28;20473;-58
2022/07/14 00:50:13;;;;;;;3.60;1.10;;;23.00;75.80;;;;;;5053940;28;20377;-61
2022/07/14 00:52:40;;;;;;;1.85;1.27;;;22.90;75.70;;;;;;5053682;28;20493;-61
2022/07/14 00:55:06;;;;;;;3.05;1.33;;;22.90;75.60;;;;;;5053856;28;20024;-61
2022/07/14 00:57:32;;;;;;;;;;;22.80;75.90;;;;;;5053999;28;20057;-60
2022/07/14 00:59:58;;;;;;;3.05;1.67;;;22.80;75.80;;;;;;5053806;28;20392;-61
2022/07/14 01:02:23;;;;;;;2.03;1.40;;;22.80;75.70;;;;;;5053276;28;20428;-61
2022/07/14 01:04:49;;;;;;;;;;;22.80;75.60;;;;;;5054124;28;20064;-62
2022/07/14 01:07:17;;;;;;;2.47;1.10;;;22.80;75.80;;;;;;5054016;28;19917;-62
2022/07/14 01:09:43;;;;;;;5.32;1.30;;;22.70;75.60;;;;;;5053766;28;20056;-61
2022/07/14 01:12:09;;;;;;;;;;;22.50;76.10;;;;;;5053797;28;20029;-62
2022/07/14 01:14:36;;;;;;;1.50;1.08;;;22.50;76.20;;;;;;5053286;28;20346;-62
2022/07/14 01:17:02;;;;;;;2.28;1.00;;;22.50;76.80;;;;;;5053218;28;20028;-62
2022/07/14 01:19:28;;;;;;;2.10;0.95;;;22.40;76.90;;;;;;5051887;28;20132;-62
2022/07/14 01:21:55;;;;;;;3.95;1.20;;;22.40;76.90;;;;;;5051995;28;20489;-62
2022/07/14 01:24:22;;;;;;;2.38;1.23;;;22.30;77.10;;;;;;5053162;28;20029;-61
2022/07/14 01:26:48;;;;;;;2.08;1.20;;;22.20;77.40;;;;;;5052609;28;20529;-62
2022/07/14 01:29:13;;;;;;;3.22;1.00;;;22.30;77.50;;;;;;5053162;28;20079;-61
2022/07/14 01:31:39;;;;;;;5.03;1.00;;;22.30;77.60;;;;;;5053826;28;20104;-61
2022/07/14 01:34:05;;;;;;;4.38;1.20;;;22.20;77.50;;;;;;5053135;28;20024;-62
2022/07/14 01:36:30;;;;;;;2.03;1.05;;;22.00;77.80;;;;;;5053225;28;20033;-62
2022/07/14 01:38:57;;;;;;;3.42;1.30;;;21.90;78.60;;;;;;5052681;28;20029;-61
2022/07/14 01:41:23;;;;;;;2.67;1.10;;;21.80;79.10;;;;;;5053358;28;20053;-60
2022/07/14 01:43:49;;;;;;;1.30;1.08;;;21.70;79.40;;;;;;5053264;28;20045;-61
2022/07/14 01:46:14;;;;;;;;;;;21.60;79.60;;;;;;5053733;28;20033;-61
2022/07/14 01:48:40;;;;;;;2.80;1.05;;;21.60;79.70;;;;;;5053538;28;19951;-62
2022/07/14 01:51:06;;;;;;;3.17;0.88;;;21.50;79.30;;;;;;5053418;28;20025;-62
2022/07/14 01:53:32;;;;;;;1.55;1.10;;;21.40;79.50;;;;;;5053583;28;20114;-61
2022/07/14 01:55:58;;;;;;;2.70;1.15;;;21.30;79.30;;;;;;5052932;28;20040;-60
2022/07/14 01:58:24;;;;;;;1.70;1.13;;;21.30;79.30;;;;;;5053178;28;20013;-61
2022/07/14 02:03:34;;;;;;;2.42;1.02;;;21.60;79.30;;;;;;5053226;28;20079;-61
2022/07/14 02:06:00;;;;;;;;;;;21.50;78.70;;;;;;5053312;28;20105;-61
2022/07/14 02:08:27;;;;;;;2.20;1.10;;;21.50;79.00;;;;;;5052949;28;20047;-62
2022/07/14 02:13:37;;;;;;;1.65;1.00;;;21.40;79.20;;;;;;5052746;28;20125;-62
2022/07/14 02:16:03;;;;;;;3.17;1.17;;;21.40;79.70;;;;;;5052358;28;20064;-60
2022/07/14 02:18:28;;;;;;;11.02;1.20;;;21.50;79.20;;;;;;5052376;28;20029;-60
2022/07/14 02:20:54;;;;;;;1.30;0.90;;;21.50;78.70;;;;;;5052713;28;20029;-62
2022/07/14 02:23:20;;;;;;;3.38;1.20;;;21.40;78.50;;;;;;5052561;28;20112;-62
2022/07/14 02:25:46;;;;;;;0.95;0.80;;;21.40;78.50;;;;;;5052346;28;20021;-60
2022/07/14 02:28:12;;;;;;;2.15;0.80;;;21.30;78.00;;;;;;5052553;28;20500;-62
2022/07/14 02:30:38;;;;;;;2.03;1.10;;;21.30;78.20;;;;;;5052377;28;20029;-62
2022/07/14 02:33:04;;;;;;;2.78;1.13;;;21.20;78.30;;;;;;5052573;28;20029;-61
2022/07/14 02:35:30;;;;;;;1.77;1.10;;;21.30;78.40;;;;;;5052332;28;20388;-62
2022/07/14 02:37:56;;;;;;;2.72;0.98;;;21.20;78.20;;;;;;5052833;28;20025;-60
2022/07/14 02:40:21;;;;;;;1.05;0.80;;;21.10;78.40;;;;;;5056222;28;20086;-61
2022/07/14 02:42:47;;;;;;;5.75;1.13;;;21.10;78.90;;;;;;5056305;28;20029;-62
2022/07/14 02:45:12;;;;;;;1.60;0.73;;;21.10;78.60;;;;;;5055878;28;20025;-61
2022/07/14 02:47:38;;;;;;;6.60;2.08;;;21.00;78.90;;;;;;5055703;28;20123;-60
2022/07/14 02:50:04;;;;;;;3.13;1.50;;;21.00;78.80;;;;;;5055963;28;20028;-61
2022/07/14 02:52:30;;;;;;;2.97;1.15;;;21.00;78.60;;;;;;5055812;28;20462;-60
2022/07/14 02:54:56;;;;;;;1.20;0.70;;;20.90;78.90;;;;;;5055532;28;20048;-62
2022/07/14 02:57:21;;;;;;;1.45;0.70;;;20.90;79.30;;;;;;5055459;28;20024;-60
2022/07/14 02:59:47;;;;;;;3.22;0.75;;;20.90;79.30;;;;;;5055768;28;20025;-61
2022/07/14 03:02:12;;;;;;;2.72;0.90;;;20.80;79.10;;;;;;5055453;28;20025;-61
2022/07/14 03:04:38;;;;;;;0.90;0.60;;;20.80;79.10;;;;;;5055822;28;20156;-61
2022/07/14 03:07:04;;;;;;;2.40;0.95;;;20.80;79.10;;;;;;5055367;28;20048;-62
2022/07/14 03:09:30;;;;;;;1.95;1.00;;;20.80;79.20;;;;;;5055934;28;20059;-61
2022/07/14 03:11:55;;;;;;;2.08;1.20;;;20.80;79.50;;;;;;5055514;28;20036;-60
2022/07/14 03:14:21;;;;;;;2.92;1.08;;;20.90;79.50;;;;;;5056045;28;20182;-61
2022/07/14 03:16:46;;;;;;;2.60;1.00;;;20.90;79.50;;;;;;5055567;28;20060;-61
2022/07/14 03:19:13;;;;;;;1.85;1.13;;;20.90;79.30;;;;;;5055178;28;20196;-60
2022/07/14 03:21:39;;;;;;;1.20;1.00;;;20.90;79.10;;;;;;5055780;28;20013;-61
2022/07/14 03:24:06;;;;;;;1.75;1.17;;;20.90;79.00;;;;;;5055396;28;20032;-58
2022/07/14 03:26:31;;;;;;;2.85;1.17;;;20.90;79.30;;;;;;5055591;28;20025;-63
2022/07/14 03:28:57;;;;;;;2.33;1.10;;;20.90;79.50;;;;;;5054807;28;20481;-62
2022/07/14 03:31:23;;;;;;;1.30;0.90;;;21.00;78.90;;;;;;5054937;28;20397;-62
2022/07/14 03:33:48;;;;;;;1.58;1.10;;;20.90;79.30;;;;;;5054891;28;20036;-62
2022/07/14 03:36:15;;;;;;;2.88;1.02;;;20.90;79.20;;;;;;5053836;28;20044;-62
2022/07/14 03:38:40;;;;;;;3.40;1.10;;;20.90;79.10;;;;;;5054688;28;20017;-62
2022/07/14 03:41:06;;;;;;;1.55;1.02;;;20.80;78.70;;;;;;5054777;28;20028;-62
2022/07/14 03:43:32;;;;;;;1.60;0.98;;;20.70;79.10;;;;;;5054512;28;20021;-67
2022/07/14 03:45:58;;;;;;;4.57;1.10;;;20.60;79.40;;;;;;5053565;28;20078;-62
2022/07/14 03:48:23;;;;;;;4.22;1.20;;;20.60;79.80;;;;;;5054500;28;20450;-62
2022/07/14 03:50:49;;;;;;;3.25;1.45;;;20.50;80.30;;;;;;5053565;28;20536;-62
2022/07/14 03:53:15;;;;;;;2.30;1.20;;;20.40;80.60;;;;;;5053201;28;20060;-62
2022/07/14 03:55:44;;;;;;;2.00;1.08;;;20.40;81.20;;;;;;5054560;28;20060;-61
2022/07/14 03:58:10;;;;;;;2.67;1.77;;;20.30;81.50;;;;;;5054576;28;20053;-61
2022/07/14 04:00:35;;;;;;;6.57;1.60;;;20.30;81.80;;;;;;5054976;28;20028;-61
2022/07/14 04:03:01;;;;;;;4.32;1.35;;;20.30;82.20;;;;;;5054513;28;20025;-61
2022/07/14 04:05:26;;;;;;;2.60;1.40;;;20.30;82.20;;;;;;5054719;28;20396;-61
2022/07/14 04:07:52;;;;;;;3.60;1.40;;;20.30;82.20;;;;;;5054871;28;20044;-63
2022/07/14 04:10:18;;;;;;;3.90;1.85;;;20.30;82.20;;;;;;5053702;28;20025;-62
2022/07/14 04:12:44;;;;;;;4.65;1.42;;;20.30;82.20;;;;;;5054375;28;20419;-61
2022/07/14 04:15:10;;;;;;;4.18;1.55;;;20.30;82.60;;;;;;5054225;28;20024;-61
2022/07/14 04:17:36;;;;;;;1.95;1.25;;;20.30;82.40;;;;;;5054304;28;20056;-60
2022/07/14 04:20:01;;;;;;;3.47;1.40;;;20.30;82.30;;;;;;5054761;28;20025;-61
2022/07/14 04:22:27;;;;;;;3.92;1.65;;;20.30;82.10;;;;;;5054217;28;20100;-61
2022/07/14 04:24:53;;;;;;;1.40;1.17;;;20.40;82.10;;;;;;5054198;28;20046;-61
2022/07/14 04:27:19;;;;;;;1.73;1.20;;;20.40;81.80;;;;;;5053844;28;20036;-59
2022/07/14 04:29:45;;;;;;;2.08;1.65;;;20.40;81.60;;;;;;5054299;28;20025;-62
2022/07/14 04:32:10;;;;;;;3.25;1.30;;;20.40;81.70;;;;;;5054261;28;20326;-61
2022/07/14 04:34:36;;;;;;;1.95;1.30;;;20.40;81.70;;;;;;5053848;28;20071;-61
2022/07/14 04:37:03;;;;;;;14.88;3.90;;;20.40;81.70;;;;;;5053816;28;20104;-64
2022/07/14 04:39:29;;;;;;;37.80;6.65;;;20.50;82.00;;;;;;5053779;28;20025;-64
2022/07/14 04:41:54;;;;;;;15.25;3.65;;;20.50;82.50;;;;;;5054084;28;20401;-64
2022/07/14 04:44:20;;;;;;;7.40;1.83;;;20.60;82.70;;;;;;5054125;28;20562;-64
2022/07/14 04:46:45;;;;;;;3.35;1.25;;;20.70;82.50;;;;;;5053763;28;20057;-64
2022/07/14 04:52:09;;;;;;;1.88;1.27;;;20.90;81.10;;;;;;5030859;28;20481;-65
2022/07/14 04:54:35;;;;;;;1.55;1.20;;;20.90;81.00;;;;;;5052171;28;20035;-65
2022/07/14 04:57:03;;;;;;;2.83;1.33;;;20.90;82.30;;;;;;5053323;28;20033;-65
2022/07/14 04:59:30;;;;;;;4.57;1.42;;;21.00;81.00;;;;;;5053415;28;20017;-65
2022/07/14 05:01:56;;;;;;;4.68;1.70;;;21.10;80.90;;;;;;5053551;28;20440;-64
2022/07/14 05:04:22;;;;;;;2.97;1.13;;;21.20;80.60;;;;;;5053517;28;20470;-64
2022/07/14 05:06:49;;;;;;;11.98;1.67;;;21.20;80.50;;;;;;5053443;28;20060;-64
2022/07/14 05:09:16;;;;;;;4.53;1.40;;;21.20;80.70;;;;;;5054359;28;20035;-65
2022/07/14 05:11:42;;;;;;;3.03;1.30;;;21.30;81.20;;;;;;5053316;28;20028;-65
2022/07/14 05:14:08;;;;;;;3.17;1.20;;;21.40;80.60;;;;;;5053506;28;20104;-64
2022/07/14 05:16:33;;;;;;;7.93;1.90;;;21.40;79.90;;;;;;5051871;28;20032;-65
2022/07/14 05:18:59;;;;;;;3.08;1.20;;;21.40;80.10;;;;;;5053242;28;20024;-65
2022/07/14 05:21:26;;;;;;;3.47;1.42;;;21.50;80.30;;;;;;5054240;28;20021;-65
2022/07/14 05:23:51;;;;;;;3.42;1.52;;;21.60;80.60;;;;;;5052432;28;20388;-64
2022/07/14 05:26:17;;;;;;;8.60;1.80;;;21.80;80.90;;;;;;5052961;28;20100;-65
2022/07/14 05:28:43;;;;;;;5.30;1.70;;;21.90;80.90;;;;;;5053027;28;20032;-65
2022/07/14 05:31:09;;;;;;;6.50;1.52;;;22.00;80.90;;;;;;5052002;28;20025;-66
2022/07/14 05:33:35;;;;;;;4.00;1.27;;;22.00;80.50;;;;;;5054030;28;20406;-66
2022/07/14 05:36:02;;;;;;;5.55;1.58;;;22.00;80.70;;;;;;5052608;28;20386;-65
2022/07/14 05:38:31;;;;;;;4.78;1.63;;;22.10;80.90;;;;;;5051659;28;20021;-65
2022/07/14 05:40:57;;;;;;;5.43;1.67;;;22.10;80.50;;;;;;5051656;28;20017;-66
2022/07/14 05:43:23;;;;;;;3.15;1.50;;;22.10;80.10;;;;;;5053999;28;20025;-66
2022/07/14 05:45:48;;;;;;;4.18;2.13;;;22.10;79.80;;;;;;5053040;28;20097;-65
2022/07/14 05:48:14;;;;;;;5.97;1.40;;;22.10;79.40;;;;;;5053177;28;20505;-65
2022/07/14 05:50:39;;;;;;;;;;;22.10;79.50;;;;;;5053418;28;20094;-65
2022/07/14 05:53:05;;;;;;;1.73;1.50;;;22.10;79.30;;;;;;5053556;28;19947;-65
2022/07/14 05:55:31;;;;;;;4.90;1.60;;;22.20;79.60;;;;;;5053015;28;20078;-65
2022/07/14 05:57:56;;;;;;;6.72;1.58;;;22.30;79.40;;;;;;5052846;28;20029;-65
2022/07/14 06:00:22;;;;;;;4.07;1.20;;;22.40;79.40;;;;;;5053019;28;20062;-65
2022/07/14 06:02:47;;;;;;;;;;;22.50;79.20;;;;;;5053759;28;20079;-65
2022/07/14 06:05:13;;;;;;;5.88;1.50;;;22.60;79.00;;;;;;5053041;28;19905;-65
2022/07/14 06:07:39;;;;;;;8.48;1.98;;;22.70;78.80;;;;;;5052581;28;20037;-64
2022/07/14 06:10:05;;;;;;;;;;;22.70;78.60;;;;;;5053557;28;20466;-64
2022/07/14 06:12:37;;;;;;;4.90;1.40;;;22.80;77.90;;;;;;5053038;28;20369;-65
2022/07/14 06:15:05;;;;;;;3.80;1.10;;;22.90;77.90;;;;;;5056392;28;20031;-65
2022/07/14 06:17:31;;;;;;;3.47;1.38;;;22.90;77.60;;;;;;5056950;28;20027;-65
2022/07/14 06:20:00;;;;;;;4.75;1.25;;;22.90;77.70;;;;;;5056597;28;20017;-64
2022/07/14 06:22:26;;;;;;;2.50;1.25;;;23.00;77.20;;;;;;5056655;28;20021;-65
2022/07/14 06:24:52;;;;;;;3.15;1.38;;;23.10;77.30;;;;;;5056732;28;20024;-65
2022/07/14 06:27:18;;;;;;;3.40;1.27;;;23.10;77.10;;;;;;5058207;28;20033;-62
2022/07/14 06:29:43;;;;;;;2.60;1.33;;;23.10;77.00;;;;;;5059443;28;20595;-62
2022/07/14 06:32:09;;;;;;;6.47;1.50;;;23.20;77.10;;;;;;5059891;28;20048;-62
2022/07/14 06:34:34;;;;;;;;;;;23.30;77.30;;;;;;5059024;28;20056;-62
2022/07/14 06:37:00;;;;;;;4.85;1.40;;;23.40;77.10;;;;;;5057201;28;19956;-61
2022/07/14 06:39:25;;;;;;;;;;;23.50;76.90;;;;;;5057932;28;20029;-61
2022/07/14 06:41:51;;;;;;;5.75;1.30;;;23.60;77.00;;;;;;5056999;28;19958;-63
2022/07/14 06:44:16;;;;;;;;;;;23.60;77.00;;;;;;5057727;28;20025;-61
2022/07/14 06:46:42;;;;;;;9.88;1.92;;;23.70;76.90;;;;;;5057878;28;19904;-62
2022/07/14 06:49:07;;;;;;;;;;;23.80;76.60;;;;;;5058374;28;20029;-62
2022/07/14 06:51:33;;;;;;;5.78;1.73;;;23.90;76.30;;;;;;5058210;28;19913;-62
2022/07/14 06:53:58;;;;;;;;;;;24.20;75.80;;;;;;5058077;28;20036;-61
2022/07/14 06:56:24;;;;;;;4.72;1.67;;;24.40;74.90;;;;;;5055960;28;19932;-62
2022/07/14 06:58:49;;;;;;;;;;;24.60;74.20;;;;;;5056283;28;20033;-62
2022/07/14 07:01:15;;;;;;;5.05;1.70;;;24.90;73.90;;;;;;5055678;28;19954;-63
2022/07/14 07:03:40;;;;;;;;;;;25.00;73.40;;;;;;5055845;28;20386;-64
2022/07/14 07:08:51;;;;;;;4.68;2.00;;;25.30;73.20;;;;;;5078770;22;20052;-65
2022/07/14 07:11:17;;;;;;;4.03;1.80;;;25.50;73.10;;;;;;5055637;28;20017;-64
2022/07/14 07:13:42;;;;;;;;;;;25.50;72.90;;;;;;5056011;28;20082;-65
2022/07/14 07:16:08;;;;;;;5.82;1.65;;;25.40;72.90;;;;;;5055161;28;19963;-65
2022/07/14 07:18:35;;;;;;;3.65;1.55;;;25.30;72.90;;;;;;5070632;28;20028;-64
2022/07/14 07:21:01;;;;;;;4.70;1.60;;;25.40;73.10;;;;;;5055768;28;20028;-65
2022/07/14 07:23:27;;;;;;;;;;;25.60;73.00;;;;;;5056082;28;20405;-66
2022/07/14 07:25:53;;;;;;;4.43;1.50;;;25.70;73.40;;;;;;5056594;28;19974;-66
2022/07/14 07:28:19;;;;;;;4.50;1.52;;;25.80;73.40;;;;;;5056241;28;20549;-67
2022/07/14 07:30:45;;;;;;;5.93;1.70;;;25.90;73.30;;;;;;5059144;28;20021;-65
2022/07/14 07:33:10;;;;;;;;;;;25.90;73.70;;;;;;5076270;28;20032;-66
2022/07/14 07:35:36;;;;;;;5.65;1.85;;;25.90;73.70;;;;;;5055780;28;19904;-65
2022/07/14 07:38:01;;;;;;;3.85;1.45;;;26.00;73.50;;;;;;5055146;28;20029;-65
2022/07/14 07:40:27;;;;;;;4.43;1.85;;;26.00;73.60;;;;;;5055367;28;20027;-65
2022/07/14 07:42:53;;;;;;;5.70;2.35;;;26.00;73.50;;;;;;5055127;28;20036;-65
2022/07/14 07:45:18;;;;;;;4.38;1.80;;;26.00;73.70;;;;;;5053580;28;20112;-65
2022/07/14 07:47:44;;;;;;;4.65;1.60;;;26.10;73.40;;;;;;5070249;28;20028;-65
2022/07/14 07:50:10;;;;;;;4.68;2.05;;;26.20;73.00;;;;;;5055018;28;20541;-65
2022/07/14 07:52:37;;;;;;;2.47;1.50;;;26.30;72.70;;;;;;5053573;28;20397;-65
2022/07/14 07:55:08;;;;;;;2.70;1.52;;;26.60;72.10;;;;;;5054961;28;20025;-64
2022/07/14 07:57:34;;;;;;;7.50;3.10;;;26.70;71.00;;;;;;5054533;28;20028;-65
2022/07/14 08:00:00;;;;;;;3.17;1.75;;;26.70;70.30;;;;;;5054754;28;20497;-67
2022/07/14 08:02:26;;;;;;;4.15;1.48;;;26.90;69.70;;;;;;5054408;28;20032;-66
2022/07/14 08:04:52;;;;;;;6.50;2.60;;;27.00;69.80;;;;;;5053044;28;20017;-66
2022/07/14 08:07:18;;;;;;;4.88;1.60;;;27.30;69.50;;;;;;5054651;28;20024;-66
2022/07/14 08:09:43;;;;;;;3.42;1.50;;;27.50;68.70;;;;;;5054209;28;20036;-66
2022/07/14 08:12:09;;;;;;;4.22;2.00;;;27.70;68.60;;;;;;5054921;28;20032;-66
2022/07/14 08:14:50;;;;;;;4.10;1.80;;;28.00;67.90;;;;;;5054263;28;20033;-67
2022/07/14 08:17:20;;;;;;;3.97;1.60;;;28.50;67.50;;;;;;5054623;28;20028;-66
2022/07/14 08:19:46;;;;;;;4.53;1.60;;;30.40;64.80;;;;;;5053148;28;20025;-65
2022/07/14 08:22:12;;;;;;;5.82;1.50;;;32.10;61.60;;;;;;5052815;28;20115;-66
2022/07/14 08:24:38;;;;;;;8.77;1.50;;;33.30;60.60;;;;;;5054230;28;20096;-65
2022/07/14 08:27:03;;;;;;;4.60;1.70;;;35.20;58.70;;;;;;5069405;28;20067;-65
2022/07/14 08:29:29;;;;;;;6.50;1.60;;;36.30;56.30;;;;;;5054041;28;20557;-65
2022/07/14 08:31:55;;;;;;;5.15;1.80;;;37.20;55.00;;;;;;5054246;28;20025;-65
2022/07/14 08:34:21;;;;;;;5.03;1.92;;;37.30;54.30;;;;;;5054046;28;20033;-65
2022/07/14 08:36:46;;;;;;;2.08;1.65;;;38.20;53.70;;;;;;5052942;28;20025;-66
2022/07/14 08:39:12;;;;;;;5.10;1.42;;;38.90;52.40;;;;;;5054093;28;20064;-65
2022/07/14 08:41:38;;;;;;;2.28;1.33;;;39.60;51.30;;;;;;5053998;28;20074;-66
2022/07/14 08:44:04;;;;;;;2.75;1.40;;;40.30;50.50;;;;;;5054531;28;20520;-66
2022/07/14 08:46:36;;;;;;;5.13;2.10;;;40.80;50.00;;;;;;5052566;28;20021;-65
2022/07/14 08:49:01;;;;;;;3.95;2.05;;;41.50;49.60;;;;;;5054376;28;20473;-65
2022/07/14 08:51:27;;;;;;;7.55;1.80;;;41.60;48.70;;;;;;5053853;28;20087;-65
2022/07/14 08:53:53;;;;;;;4.55;1.85;;;41.30;48.00;;;;;;5054456;28;20017;-65
2022/07/14 08:56:19;;;;;;;3.08;1.58;;;40.80;49.10;;;;;;5053968;28;20029;-66
2022/07/14 08:58:45;;;;;;;3.88;1.63;;;41.30;48.30;;;;;;5053796;28;20021;-66
2022/07/14 09:01:11;;;;;;;8.10;1.75;;;41.70;47.50;;;;;;5053796;28;20028;-65
2022/07/14 09:03:37;;;;;;;7.25;1.80;;;41.70;47.60;;;;;;5054092;28;20092;-65
2022/07/14 09:06:04;;;;;;;3.05;1.75;;;42.00;47.40;;;;;;5053672;28;20528;-66
2022/07/14 09:08:30;;;;;;;7.10;1.98;;;43.00;46.80;;;;;;5053287;28;20025;-66
2022/07/14 09:10:55;;;;;;;4.15;1.40;;;43.10;46.00;;;;;;5053526;28;20021;-66
2022/07/14 09:13:24;;;;;;;2.80;1.70;;;43.40;45.40;;;;;;5053501;28;20030;-65
2022/07/14 09:16:22;;;;;;;6.85;3.42;;;43.70;45.50;;;;;;5054162;28;20025;-65
2022/07/14 09:19:09;;;;;;;3.67;1.73;;;44.40;45.30;;;;;;5052521;28;20469;-65
2022/07/14 09:21:39;;;;;;;6.38;1.70;;;43.20;44.70;;;;;;5053505;28;20115;-65
2022/07/14 09:24:07;;;;;;;6.47;1.65;;;42.80;44.90;;;;;;5053390;28;20098;-66
2022/07/14 09:26:42;;;;;;;3.90;1.50;;;42.50;44.70;;;;;;5053292;28;20478;-66
2022/07/14 09:29:08;;;;;;;4.05;1.85;;;42.80;44.90;;;;;;5053190;28;20029;-66
2022/07/14 09:31:35;;;;;;;6.00;1.70;;;43.20;44.90;;;;;;5053583;28;20344;-66
2022/07/14 09:34:05;;;;;;;4.53;1.30;;;43.80;44.50;;;;;;5053357;28;20025;-66
2022/07/14 09:36:32;;;;;;;1.85;1.50;;;44.40;44.00;;;;;;5053095;28;20489;-65
2022/07/14 09:39:03;;;;;;;4.32;1.90;;;44.10;45.10;;;;;;5051947;28;20393;-66
2022/07/14 09:41:35;;;;;;;4.85;1.70;;;43.50;46.30;;;;;;5053338;28;20017;-66
2022/07/14 09:44:12;;;;;;;5.22;1.65;;;43.70;46.50;;;;;;5053029;28;20078;-66
2022/07/14 09:46:49;;;;;;;3.85;1.58;;;43.80;44.90;;;;;;5052820;28;20082;-66
2022/07/14 09:49:16;;;;;;;5.15;2.05;;;43.50;44.50;;;;;;5055662;28;20082;-66
2022/07/14 09:52:02;;;;;;;2.35;1.45;;;43.00;45.10;;;;;;5056950;28;20044;-66
2022/07/14 09:54:37;;;;;;;7.53;1.80;;;42.70;44.10;;;;;;5057200;28;20052;-66
2022/07/14 09:57:08;;;;;;;5.40;1.33;;;42.40;43.80;;;;;;5057004;28;20424;-66
2022/07/14 09:59:51;;;;;;;3.65;1.50;;;41.70;44.20;;;;;;5055505;28;20111;-66
2022/07/14 10:02:29;;;;;;;4.53;1.40;;;41.10;44.50;;;;;;5056992;28;20025;-66
2022/07/14 10:05:02;;;;;;;4.20;1.42;;;40.00;45.50;;;;;;5055323;28;20063;-66
2022/07/14 10:07:33;;;;;;;6.55;1.38;;;38.00;46.70;;;;;;5056659;28;20040;-66
2022/07/14 10:10:13;;;;;;;3.45;1.17;;;36.80;48.50;;;;;;5056772;28;20065;-66
2022/07/14 10:12:41;;;;;;;3.80;1.17;;;36.00;49.70;;;;;;5056563;28;20043;-66
2022/07/14 10:15:10;;;;;;;2.38;1.10;;;36.10;49.70;;;;;;5055267;28;20029;-67
2022/07/14 10:17:37;;;;;;;2.03;1.30;;;36.40;48.30;;;;;;5056303;28;20032;-66
2022/07/14 10:20:06;;;;;;;3.05;1.05;;;37.00;47.70;;;;;;5056549;28;20025;-66
2022/07/14 10:22:32;;;;;;;3.38;1.30;;;37.40;47.70;;;;;;5071872;28;20036;-66
2022/07/14 10:24:58;;;;;;;2.70;1.35;;;38.10;47.60;;;;;;5056435;28;20028;-66
2022/07/14 10:27:26;;;;;;;3.42;1.20;;;38.70;46.90;;;;;;5056731;28;20545;-65
2022/07/14 10:29:54;;;;;;;2.58;1.30;;;39.10;46.80;;;;;;5056192;28;20052;-65
2022/07/14 10:32:50;;;;;;;2.28;1.00;;;39.60;46.70;;;;;;5056343;28;20025;-66
2022/07/14 10:35:41;;;;;;;3.13;1.60;;;40.90;45.90;;;;;;5054880;28;20024;-65
2022/07/14 10:38:27;;;;;;;3.75;1.63;;;41.40;45.60;;;;;;5051696;28;20060;-66
2022/07/14 10:41:13;;;;;;;3.70;1.15;;;41.10;45.40;;;;;;5056039;28;20078;-66
2022/07/14 10:44:01;;;;;;;2.55;1.20;;;40.70;45.60;;;;;;5054717;28;20025;-66
2022/07/14 10:46:45;;;;;;;1.95;1.27;;;40.60;45.80;;;;;;5056094;28;20033;-67
2022/07/14 10:49:13;;;;;;;5.72;1.70;;;40.90;45.40;;;;;;5056202;28;20526;-66
2022/07/14 10:51:51;;;;;;;3.33;1.27;;;41.30;45.60;;;;;;5056260;28;20025;-65
2022/07/14 10:54:29;;;;;;;5.00;1.50;;;41.10;45.30;;;;;;5054604;28;20025;-65
2022/07/14 10:57:14;;;;;;;4.72;1.40;;;41.20;45.50;;;;;;5056141;28;20029;-66
2022/07/14 10:59:42;;;;;;;2.65;1.30;;;41.20;45.40;;;;;;5055693;28;20021;-65
2022/07/14 11:02:13;;;;;;;3.58;1.48;;;41.50;45.50;;;;;;5057404;28;20025;-65
2022/07/14 11:05:03;;;;;;;3.55;1.30;;;41.30;45.50;;;;;;5057611;28;20021;-66
2022/07/14 11:07:50;;;;;;;4.43;1.30;;;40.50;46.00;;;;;;5056672;28;20021;-66
2022/07/14 11:10:24;;;;;;;4.38;2.40;;;40.30;46.00;;;;;;5055791;28;20104;-66
2022/07/14 11:13:04;;;;;;;4.28;1.55;;;40.30;45.70;;;;;;5055786;28;20477;-66
2022/07/14 11:15:40;;;;;;;5.82;1.48;;;39.90;45.80;;;;;;5056660;28;20440;-66
2022/07/14 11:18:17;;;;;;;1.77;1.30;;;39.00;46.60;;;;;;5056908;28;20048;-66
2022/07/14 11:20:58;;;;;;;3.33;1.67;;;38.00;47.50;;;;;;5057194;28;20025;-66
2022/07/14 11:23:26;;;;;;;3.42;2.28;;;37.20;48.30;;;;;;5058333;28;20025;-69
2022/07/14 11:25:53;;;;;;;3.85;1.60;;;36.60;48.60;;;;;;5057304;28;20100;-67
2022/07/14 11:28:31;;;;;;;5.00;1.25;;;36.20;49.20;;;;;;5054604;28;20025;-68
2022/07/14 11:31:14;;;;;;;2.83;1.40;;;35.70;49.60;;;;;;5055963;28;20044;-66
2022/07/14 11:36:37;;;;;;;1.40;1.30;;;35.30;50.20;;;;;;5055749;28;20078;-67
2022/07/14 11:39:15;;;;;;;3.42;1.67;;;35.00;50.40;;;;;;5070694;28;20074;-68
2022/07/14 11:41:46;;;;;;;6.25;1.48;;;34.90;51.00;;;;;;5055257;28;20025;-68
2022/07/14 11:44:40;;;;;;;4.18;2.00;;;35.00;51.10;;;;;;5053646;28;20025;-66
2022/07/14 11:47:30;;;;;;;5.07;1.58;;;35.00;51.40;;;;;;5054840;28;20082;-67
2022/07/14 11:50:00;;;;;;;3.92;1.52;;;34.90;51.50;;;;;;5053740;28;20035;-67
2022/07/14 11:52:31;;;;;;;3.63;1.45;;;34.90;51.40;;;;;;5055207;28;20025;-67
2022/07/14 11:54:59;;;;;;;8.95;2.10;;;35.00;51.50;;;;;;5055000;28;20058;-67
2022/07/14 11:57:24;;;;;;;5.00;1.75;;;34.70;51.50;;;;;;5054740;28;20086;-68
2022/07/14 11:59:50;;;;;;;3.08;1.70;;;34.60;51.50;;;;;;5053438;28;20021;-67
2022/07/14 12:02:19;;;;;;;3.40;1.65;;;34.50;51.80;;;;;;5054816;28;20028;-68
2022/07/14 12:04:53;;;;;;;4.68;1.50;;;34.30;51.90;;;;;;5053418;28;20028;-66
2022/07/14 12:07:20;;;;;;;5.28;1.52;;;34.20;52.10;;;;;;5054864;28;20104;-69
2022/07/14 12:09:46;;;;;;;7.90;2.70;;;34.30;52.20;;;;;;5054318;28;20037;-67
2022/07/14 12:12:12;;;;;;;6.75;2.20;;;34.30;52.30;;;;;;5053625;28;20031;-69
2022/07/14 12:14:50;;;;;;;5.47;2.03;;;34.20;51.90;;;;;;5054459;28;20389;-68
2022/07/14 12:17:17;;;;;;;4.05;1.98;;;34.10;52.20;;;;;;5054285;28;20025;-68
2022/07/14 12:19:43;;;;;;;4.72;1.70;;;34.10;52.20;;;;;;5054593;28;20476;-68
2022/07/14 12:22:09;;;;;;;4.13;1.60;;;34.20;52.70;;;;;;5054297;28;20053;-67
2022/07/14 12:24:35;;;;;;;7.25;1.50;;;34.40;52.10;;;;;;5054381;28;20021;-69
2022/07/14 12:27:11;;;;;;;7.18;1.60;;;34.40;51.90;;;;;;5054373;28;20039;-69
2022/07/14 12:29:47;;;;;;;5.93;1.20;;;34.40;51.60;;;;;;5054298;28;20021;-69
2022/07/14 12:32:15;;;;;;;4.75;1.52;;;34.30;51.80;;;;;;5054336;28;20055;-69
2022/07/14 12:34:42;;;;;;;4.43;1.55;;;34.10;51.90;;;;;;5053902;28;20075;-69
2022/07/14 12:37:10;;;;;;;6.00;4.00;;;34.00;51.90;;;;;;5053868;28;20416;-69
2022/07/14 12:39:36;;;;;;;4.18;1.60;;;34.00;52.90;;;;;;5052472;28;20025;-69
2022/07/14 12:42:04;;;;;;;3.60;1.27;;;33.90;52.40;;;;;;5053908;28;20032;-70
2022/07/14 12:44:31;;;;;;;2.90;1.17;;;33.80;52.50;;;;;;5053861;28;20029;-70
2022/07/14 12:47:08;;;;;;;1.88;1.23;;;33.90;52.60;;;;;;5052510;28;20028;-69
2022/07/14 12:49:47;;;;;;;6.15;1.50;;;34.00;52.20;;;;;;5053853;28;20111;-69
2022/07/14 12:52:14;;;;;;;2.58;1.30;;;34.30;52.00;;;;;;5052132;28;20029;-68
2022/07/14 12:54:41;;;;;;;4.22;1.52;;;34.30;51.90;;;;;;5053667;28;20025;-66
2022/07/14 12:57:16;;;;;;;3.95;1.48;;;34.50;51.80;;;;;;5052371;28;20021;-69
2022/07/14 12:59:44;;;;;;;2.13;1.10;;;34.70;52.00;;;;;;5052521;28;20148;-69
2022/07/14 13:02:10;;;;;;;4.68;1.27;;;34.70;51.40;;;;;;5053366;28;20432;-68
2022/07/14 13:04:44;;;;;;;3.92;1.30;;;34.60;51.00;;;;;;5052040;28;20029;-68
2022/07/14 13:07:25;;;;;;;7.10;1.40;;;34.40;51.30;;;;;;5052527;28;20040;-68
2022/07/14 13:10:26;;;;;;;4.75;1.40;;;34.30;50.90;;;;;;5054366;28;20043;-67
2022/07/14 13:12:54;;;;;;;45.63;4.38;;;34.20;51.30;;;;;;5031730;28;20068;-69